In Rescue
 
Open Full Screen Window  High Contrast Mode
Wind Gusting 00 knots
03
September 19, 2019 5:57 PM EDT
Weather Information
Wind Direction
  120 °
Wind Speed
  03 kt (3 mph)
Wind Gust
  00 kt (0 mph)
Altimeter
30.17 in
Visibility
7 SM
Temperature
24° C
75° F
Dewpoint
10° C
50° F
Humidity
41%
1hr Rain Fall
00.00 in.
24hr Rain Fall
00.00 in.
Sky Condition
Clear
VFR

METAR KPOV 192157Z AUTO 12003KT 7SM CLR 24/10 A3017 RMK AO2 T02410104 PWINO

FAA Disclaimer: The data displayed is for advisory purposes only and is not to be used for flight planning or operations.